Time;durP1;ratioP1;P1;durP2;ratioP2;P2;SDS_P1;SDS_P2;PMS_P1;PMS_P2;Temp;Humidity;BMP_temperature;BMP_pressure;BME280_temperature;BME280_humidity;BME280_pressure;Samples;Min_cycle;Max_cycle;Signal;HPM_P1;HPM_P2
2021/12/03 05:01:46;;;;;;;10.55;9.40;;;1.00;99.90;;;;;;5418796;22;20287;-70
2021/12/03 05:04:13;;;;;;;15.07;11.45;;;1.00;99.90;;;;;;5049427;28;20194;-70
2021/12/03 05:06:54;;;;;;;16.63;10.82;;;0.90;99.90;;;;;;5050524;28;20229;-70
2021/12/03 05:09:21;;;;;;;14.82;11.32;;;1.00;99.90;;;;;;5049527;28;20208;-70
2021/12/03 05:11:48;;;;;;;11.32;10.32;;;1.00;99.90;;;;;;5036348;28;20230;-69
2021/12/03 05:14:14;;;;;;;11.77;10.57;;;1.00;99.90;;;;;;5029919;28;20655;-69
2021/12/03 05:16:41;;;;;;;20.02;10.48;;;1.00;99.90;;;;;;5030943;28;20198;-69
2021/12/03 05:19:09;;;;;;;14.30;9.93;;;1.00;99.90;;;;;;5031236;28;20890;-69
2021/12/03 05:21:36;;;;;;;11.40;9.77;;;1.00;99.90;;;;;;5031561;28;20288;-69
2021/12/03 05:24:03;;;;;;;14.20;9.00;;;1.00;99.90;;;;;;5029948;28;20203;-69
2021/12/03 05:26:30;;;;;;;12.43;10.55;;;1.00;99.90;;;;;;5028936;28;20227;-69
2021/12/03 05:28:57;;;;;;;15.20;9.98;;;1.00;99.90;;;;;;5030736;28;20210;-69
2021/12/03 05:31:23;;;;;;;11.25;10.00;;;1.10;99.90;;;;;;5019278;28;20253;-69
2021/12/03 05:33:50;;;;;;;14.05;10.77;;;1.10;99.90;;;;;;5031006;28;20575;-70
2021/12/03 05:36:18;;;;;;;11.65;10.45;;;1.10;99.90;;;;;;5029646;28;20547;-69
2021/12/03 05:38:45;;;;;;;13.50;10.32;;;1.10;99.90;;;;;;5030856;28;20213;-69
2021/12/03 05:41:11;;;;;;;13.73;10.90;;;1.20;99.90;;;;;;5028407;28;20222;-70
2021/12/03 05:43:38;;;;;;;13.60;10.05;;;1.20;99.90;;;;;;5031111;28;20210;-69
2021/12/03 05:46:05;;;;;;;14.30;10.48;;;1.20;99.90;;;;;;5029740;28;20768;-69
2021/12/03 05:48:31;;;;;;;15.40;12.07;;;1.20;99.90;;;;;;5026671;28;20199;-69
2021/12/03 05:50:58;;;;;;;15.65;11.85;;;1.20;99.90;;;;;;5020297;28;20373;-69
2021/12/03 05:53:26;;;;;;;10.13;9.10;;;1.20;99.90;;;;;;5010911;28;20207;-69
2021/12/03 05:55:53;;;;;;;11.45;10.25;;;1.20;99.90;;;;;;5023966;28;20268;-69
2021/12/03 05:58:20;;;;;;;12.70;10.75;;;1.30;99.90;;;;;;5030417;28;20206;-70
2021/12/03 06:00:47;;;;;;;13.85;11.32;;;1.30;99.90;;;;;;5024770;28;20336;-69
2021/12/03 06:03:14;;;;;;;11.15;10.15;;;1.30;99.90;;;;;;5029878;28;20257;-70
2021/12/03 06:05:41;;;;;;;10.65;9.55;;;1.30;99.90;;;;;;5022168;28;20218;-70
2021/12/03 06:08:08;;;;;;;12.65;8.73;;;1.40;99.90;;;;;;5029909;28;20199;-70
2021/12/03 06:10:37;;;;;;;12.88;9.88;;;1.40;99.90;;;;;;5026109;28;20254;-70
2021/12/03 06:13:04;;;;;;;11.00;9.90;;;1.40;99.90;;;;;;5012746;28;20210;-69
2021/12/03 06:15:31;;;;;;;11.45;9.63;;;1.40;99.90;;;;;;5030843;28;20218;-70
2021/12/03 06:17:58;;;;;;;12.38;9.63;;;1.40;99.90;;;;;;5030770;28;20210;-70
2021/12/03 06:20:25;;;;;;;11.40;10.38;;;1.40;99.90;;;;;;5024981;28;20725;-70
2021/12/03 06:22:51;;;;;;;13.82;9.57;;;1.50;99.90;;;;;;5025655;28;20195;-70
2021/12/03 06:25:19;;;;;;;11.13;9.65;;;1.50;99.90;;;;;;5029773;28;20210;-70
2021/12/03 06:27:48;;;;;;;13.15;10.63;;;1.50;99.90;;;;;;5027763;28;20207;-70
2021/12/03 06:30:18;;;;;;;9.65;8.65;;;1.50;99.90;;;;;;5030136;28;20324;-70
2021/12/03 06:32:45;;;;;;;9.10;8.05;;;1.60;99.90;;;;;;5028731;28;20210;-69
2021/12/03 06:35:15;;;;;;;8.23;7.30;;;1.60;99.90;;;;;;5030416;28;20211;-71
2021/12/03 06:37:42;;;;;;;9.75;7.88;;;1.60;99.90;;;;;;5027288;28;20206;-71
2021/12/03 06:40:12;;;;;;;7.90;7.13;;;1.60;99.90;;;;;;5029142;28;20207;-70
2021/12/03 06:42:39;;;;;;;8.93;8.10;;;1.60;99.90;;;;;;5012368;28;20222;-70
2021/12/03 06:45:08;;;;;;;7.80;7.10;;;1.60;99.90;;;;;;5010488;28;20621;-70
2021/12/03 06:47:35;;;;;;;15.18;10.38;;;1.60;99.90;;;;;;5025976;28;20222;-70
2021/12/03 06:50:03;;;;;;;9.73;8.70;;;1.60;99.90;;;;;;5029879;28;20538;-70
2021/12/03 06:52:31;;;;;;;8.40;7.28;;;1.60;99.90;;;;;;5026734;28;20253;-70
2021/12/03 06:55:01;;;;;;;7.20;6.55;;;1.60;99.90;;;;;;5021123;28;20285;-69
2021/12/03 06:57:28;;;;;;;8.45;7.28;;;1.60;99.90;;;;;;5012603;28;20279;-69
2021/12/03 06:59:55;;;;;;;8.32;7.47;;;1.70;99.90;;;;;;5015056;28;20206;-69
2021/12/03 07:02:23;;;;;;;8.38;6.80;;;1.70;99.90;;;;;;5021779;28;20645;-69
2021/12/03 07:04:50;;;;;;;9.95;8.85;;;1.70;99.90;;;;;;5031922;28;20237;-70
2021/12/03 07:07:16;;;;;;;8.55;7.85;;;1.70;99.90;;;;;;5032634;28;20233;-70
2021/12/03 07:09:43;;;;;;;8.80;8.00;;;1.70;99.90;;;;;;5028262;28;20660;-70
2021/12/03 07:12:10;;;;;;;6.60;6.00;;;1.70;99.90;;;;;;5027022;28;20218;-70
2021/12/03 07:14:38;;;;;;;10.35;8.93;;;1.70;99.90;;;;;;5025544;28;20644;-72
2021/12/03 07:17:06;;;;;;;9.40;6.82;;;1.80;99.90;;;;;;5014855;28;20276;-69
2021/12/03 07:19:34;;;;;;;11.98;8.30;;;1.80;99.90;;;;;;5031597;28;20615;-69
2021/12/03 07:22:02;;;;;;;10.00;9.07;;;1.80;99.90;;;;;;5032359;28;20230;-70
2021/12/03 07:24:29;;;;;;;11.63;8.77;;;1.80;99.90;;;;;;5030618;28;20585;-69
2021/12/03 07:26:55;;;;;;;10.20;8.25;;;1.80;99.90;;;;;;5023452;28;20280;-69
2021/12/03 07:29:22;;;;;;;7.63;6.95;;;1.80;99.90;;;;;;5030914;28;20291;-69
2021/12/03 07:31:49;;;;;;;12.07;9.70;;;1.80;99.90;;;;;;5031181;28;20258;-69
2021/12/03 07:34:16;;;;;;;13.52;9.70;;;1.80;99.90;;;;;;5026708;28;20199;-69
2021/12/03 07:36:44;;;;;;;16.25;11.30;;;1.80;99.90;;;;;;5015431;28;20632;-69
2021/12/03 07:39:10;;;;;;;11.40;9.18;;;1.80;99.90;;;;;;5011825;28;20237;-69
2021/12/03 07:41:40;;;;;;;11.38;9.10;;;1.80;99.90;;;;;;5015582;28;20226;-70
2021/12/03 07:44:08;;;;;;;14.43;10.07;;;1.80;99.90;;;;;;5026185;28;20575;-69
2021/12/03 07:46:35;;;;;;;16.00;9.20;;;1.70;99.90;;;;;;5020314;28;20239;-69
2021/12/03 07:49:03;;;;;;;9.77;8.75;;;1.70;99.90;;;;;;5029801;28;20203;-70
2021/12/03 07:51:29;;;;;;;17.33;12.05;;;1.70;99.90;;;;;;5031252;28;20296;-70
2021/12/03 07:53:58;;;;;;;16.27;10.75;;;1.70;99.90;;;;;;5031202;28;20199;-69
2021/12/03 07:56:25;;;;;;;15.05;11.07;;;1.70;99.90;;;;;;5026175;28;20199;-69
2021/12/03 07:58:51;;;;;;;15.40;11.13;;;1.70;99.90;;;;;;5012281;28;20626;-69
2021/12/03 08:01:18;;;;;;;11.40;10.00;;;1.60;99.90;;;;;;5021505;28;20275;-68
2021/12/03 08:03:45;;;;;;;18.25;11.75;;;1.60;99.90;;;;;;5029564;28;20631;-69
2021/12/03 08:06:13;;;;;;;19.13;12.38;;;1.60;99.90;;;;;;5030120;28;20738;-69
2021/12/03 08:08:41;;;;;;;18.70;12.65;;;1.60;99.90;;;;;;5031348;28;20679;-69
2021/12/03 08:11:09;;;;;;;16.58;13.00;;;1.60;99.90;;;;;;5015413;28;20712;-70
2021/12/03 08:13:36;;;;;;;19.50;11.63;;;1.60;99.90;;;;;;5018226;28;20214;-69
2021/12/03 08:16:03;;;;;;;15.95;12.55;;;1.60;99.90;;;;;;5029964;28;20202;-69
2021/12/03 08:18:30;;;;;;;15.25;12.50;;;1.60;99.90;;;;;;5022134;28;20207;-70
2021/12/03 08:20:56;;;;;;;18.00;13.30;;;1.60;99.90;;;;;;5030037;28;20284;-70
2021/12/03 08:23:23;;;;;;;18.70;12.70;;;1.60;99.90;;;;;;5029163;28;20209;-70
2021/12/03 08:25:50;;;;;;;17.52;12.68;;;1.60;99.90;;;;;;5027611;28;20657;-70
2021/12/03 08:28:18;;;;;;;15.98;11.77;;;1.60;99.90;;;;;;5019679;28;20212;-70
2021/12/03 08:30:45;;;;;;;16.67;10.98;;;1.60;99.90;;;;;;5027772;28;20235;-69
2021/12/03 08:33:12;;;;;;;17.65;11.70;;;1.60;99.90;;;;;;5016171;28;20203;-69
2021/12/03 08:35:38;;;;;;;15.40;13.18;;;1.60;99.90;;;;;;5022767;28;20207;-70
2021/12/03 08:38:05;;;;;;;19.58;12.93;;;1.70;99.90;;;;;;5025923;28;20561;-70
2021/12/03 08:40:32;;;;;;;16.85;12.60;;;1.70;99.90;;;;;;5024476;28;20241;-70
2021/12/03 08:42:59;;;;;;;16.85;12.68;;;1.70;99.90;;;;;;5026724;28;20199;-70
2021/12/03 08:45:27;;;;;;;15.15;10.70;;;1.70;99.90;;;;;;5020761;28;20200;-70
2021/12/03 08:47:58;;;;;;;14.93;10.77;;;1.70;99.90;;;;;;5030538;28;20231;-70
2021/12/03 08:50:29;;;;;;;15.32;10.07;;;1.70;99.90;;;;;;5022908;28;20203;-69
2021/12/03 08:55:40;;;;;;;19.73;11.95;;;1.80;99.90;;;;;;5019211;28;20205;-69
2021/12/03 08:58:07;;;;;;;16.42;11.63;;;1.80;99.90;;;;;;5015056;28;20558;-69
2021/12/03 09:00:36;;;;;;;15.07;10.60;;;1.80;99.90;;;;;;5027185;28;20226;-70
2021/12/03 09:03:04;;;;;;;14.88;11.30;;;1.80;99.90;;;;;;5022900;28;20232;-70
2021/12/03 09:05:31;;;;;;;14.57;11.32;;;1.80;99.90;;;;;;5015808;28;20257;-69
2021/12/03 09:07:59;;;;;;;18.13;11.20;;;1.80;99.90;;;;;;5029864;28;20240;-69
2021/12/03 09:10:26;;;;;;;16.98;11.00;;;1.80;99.90;;;;;;5021145;28;20206;-69
2021/12/03 09:12:54;;;;;;;16.40;12.27;;;1.80;99.90;;;;;;5029985;28;20545;-70
2021/12/03 09:15:27;;;;;;;17.33;12.73;;;1.80;99.90;;;;;;5027392;28;20576;-70
2021/12/03 09:18:13;;;;;;;21.17;12.45;;;1.80;99.90;;;;;;5029579;28;20207;-69
2021/12/03 09:20:51;;;;;;;16.40;11.25;;;1.80;99.90;;;;;;5016988;28;20219;-70
2021/12/03 09:23:26;;;;;;;15.57;11.23;;;1.80;99.90;;;;;;5014733;28;20282;-70
2021/12/03 09:25:55;;;;;;;16.77;11.55;;;1.80;99.90;;;;;;5025813;28;20198;-70
2021/12/03 09:28:26;;;;;;;23.92;13.00;;;1.80;99.90;;;;;;5021818;28;20222;-70
2021/12/03 09:30:53;;;;;;;15.32;9.98;;;1.90;99.90;;;;;;5014642;28;20223;-70
2021/12/03 09:33:25;;;;;;;21.95;12.73;;;1.90;99.90;;;;;;5014077;28;20312;-70
2021/12/03 09:35:55;;;;;;;23.33;12.27;;;2.00;99.90;;;;;;5021551;28;20248;-70
2021/12/03 09:38:24;;;;;;;22.85;12.50;;;2.00;99.90;;;;;;5019561;28;20201;-70
2021/12/03 09:40:51;;;;;;;23.08;13.52;;;2.00;99.90;;;;;;5023761;28;20229;-70
2021/12/03 09:43:17;;;;;;;25.50;13.65;;;2.10;99.90;;;;;;5016647;28;20206;-70
2021/12/03 09:45:53;;;;;;;25.63;14.80;;;2.10;99.90;;;;;;5012818;28;20302;-70
2021/12/03 09:48:31;;;;;;;23.40;13.48;;;2.10;99.90;;;;;;5025198;28;20218;-70
2021/12/03 09:50:58;;;;;;;22.48;12.68;;;2.10;99.90;;;;;;5024800;28;20770;-71
2021/12/03 09:53:38;;;;;;;26.15;14.10;;;2.20;99.90;;;;;;5028658;28;20272;-70
2021/12/03 09:56:05;;;;;;;23.13;12.30;;;2.20;99.90;;;;;;5028037;28;20245;-70
2021/12/03 09:58:57;;;;;;;22.27;13.40;;;2.30;99.90;;;;;;5024864;28;20941;-70
2021/12/03 10:01:30;;;;;;;24.73;15.07;;;2.40;99.90;;;;;;5025899;28;20703;-70
2021/12/03 10:04:18;;;;;;;21.73;13.00;;;2.40;99.90;;;;;;5027416;28;20198;-70
2021/12/03 10:12:42;;;;;;;26.25;14.70;;;2.60;99.90;;;;;;4992099;28;20230;-70
2021/12/03 10:15:12;;;;;;;26.25;13.93;;;2.70;99.90;;;;;;5028916;28;20285;-70
2021/12/03 10:17:49;;;;;;;23.17;15.10;;;2.70;99.90;;;;;;5024438;28;20298;-70
2021/12/03 10:20:24;;;;;;;28.02;15.32;;;2.80;99.90;;;;;;5019111;28;20210;-70
2021/12/03 10:29:05;;;;;;;27.92;14.35;;;2.90;99.90;;;;;;5012928;28;20632;-70
2021/12/03 10:40:30;;;;;;;28.75;16.67;;;3.00;99.90;;;;;;4988956;28;20336;-70
2021/12/03 10:43:15;;;;;;;29.75;15.52;;;3.00;99.90;;;;;;5019422;28;20580;-70
2021/12/03 10:45:54;;;;;;;27.52;14.57;;;3.10;99.90;;;;;;5025684;28;20235;-70
2021/12/03 10:48:34;;;;;;;31.83;17.80;;;3.10;99.90;;;;;;5023983;28;20230;-72
2021/12/03 10:51:19;;;;;;;20.50;13.48;;;3.20;99.90;;;;;;5028910;28;20230;-70
2021/12/03 10:53:55;;;;;;;25.35;14.05;;;3.30;99.90;;;;;;5025574;28;20279;-69
2021/12/03 10:57:02;;;;;;;24.35;14.95;;;3.30;99.90;;;;;;5023763;28;20293;-69
2021/12/03 11:13:47;;;;;;;28.38;15.48;;;3.50;99.90;;;;;;5074454;28;20595;-68
2021/12/03 11:39:30;;;;;;;22.23;13.10;;;3.70;99.90;;;;;;5049550;28;20243;-69
2021/12/03 12:16:58;;;;;;;22.25;13.02;;;3.70;99.90;;;;;;5087450;28;20315;-68
2021/12/03 13:21:18;;;;;;;20.73;11.38;;;4.20;99.90;;;;;;5081877;28;20220;-67
2021/12/03 13:24:18;;;;;;;29.85;18.45;;;4.20;99.90;;;;;;5078468;28;20200;-69
2021/12/03 13:58:24;;;;;;;18.48;10.85;;;4.30;99.90;;;;;;5079216;28;20289;-69
2021/12/03 14:00:42;;;;;;;17.50;11.73;;;4.30;99.90;;;;;;5071976;28;20205;-68
2021/12/03 14:40:16;;;;;;;19.40;10.82;;;4.20;99.90;;;;;;5068639;28;20200;-68
2021/12/03 14:42:54;;;;;;;15.52;10.15;;;4.20;99.90;;;;;;5069550;28;20201;-68
2021/12/03 14:45:33;;;;;;;14.20;10.50;;;4.20;99.90;;;;;;5069524;28;20274;-68
2021/12/03 14:51:05;;;;;;;14.80;10.05;;;4.20;99.90;;;;;;5082055;28;20231;-68
2021/12/03 14:56:20;;;;;;;12.15;8.80;;;4.10;99.90;;;;;;5067836;28;20293;-68
2021/12/03 14:58:51;;;;;;;14.40;10.18;;;4.10;99.90;;;;;;5084791;28;20200;-68
2021/12/03 15:01:24;;;;;;;17.35;11.25;;;4.00;99.90;;;;;;5068077;28;20616;-68
2021/12/03 15:04:07;;;;;;;24.23;15.77;;;4.00;99.90;;;;;;5083507;28;20547;-68
2021/12/03 15:06:38;;;;;;;28.52;19.27;;;3.90;99.90;;;;;;5079240;28;20711;-68
2021/12/03 15:09:11;;;;;;;21.67;12.90;;;3.90;99.90;;;;;;5083683;28;20254;-69
2021/12/03 15:12:20;;;;;;;24.42;15.00;;;3.80;99.90;;;;;;5069313;28;20357;-68
2021/12/03 15:23:09;;;;;;;30.85;17.02;;;3.50;99.90;;;;;;5061580;28;20228;-68
2021/12/03 15:25:49;;;;;;;29.17;15.55;;;3.50;99.90;;;;;;5073717;28;20208;-68
2021/12/03 15:31:02;;;;;;;20.42;13.43;;;3.40;99.90;;;;;;5079261;28;20229;-68
2021/12/03 15:33:40;;;;;;;23.60;14.82;;;3.40;99.90;;;;;;5068707;28;20284;-68
2021/12/03 15:36:11;;;;;;;15.00;10.20;;;3.30;99.90;;;;;;5072265;28;20317;-71
2021/12/03 15:38:46;;;;;;;18.55;13.40;;;3.30;99.90;;;;;;5081291;28;20204;-69
2021/12/03 15:58:08;;;;;;;18.65;8.98;;;3.10;99.90;;;;;;5085742;28;20328;-68
2021/12/03 16:03:37;;;;;;;19.25;11.48;;;3.10;99.90;;;;;;5088200;28;20192;-68
2021/12/03 16:06:18;;;;;;;21.85;13.57;;;3.10;99.90;;;;;;5081667;28;20205;-67
2021/12/03 16:08:46;;;;;;;17.70;11.52;;;3.10;99.90;;;;;;5079870;28;20535;-68
2021/12/03 16:11:23;;;;;;;22.27;10.75;;;3.10;99.90;;;;;;5084002;28;20238;-68
2021/12/03 16:13:58;;;;;;;12.45;9.70;;;3.10;99.90;;;;;;5083248;28;20609;-68
2021/12/03 16:16:54;;;;;;;12.25;7.68;;;3.10;99.90;;;;;;5086190;28;20203;-67
